sensor_id;sensor_type;location;lat;lon;timestamp;P1;durP1;ratioP1;P2;durP2;ratioP2
13805;SDS011;6974;53.606;9.872;2024-01-15T00:00:55;7.57;;;2.40;;
13805;SDS011;6974;53.606;9.872;2024-01-15T00:03:24;6.70;;;2.93;;
13805;SDS011;6974;53.606;9.872;2024-01-15T00:05:51;10.13;;;2.50;;
13805;SDS011;6974;53.606;9.872;2024-01-15T00:08:18;8.30;;;2.57;;
13805;SDS011;6974;53.606;9.872;2024-01-15T00:10:45;8.03;;;2.40;;
13805;SDS011;6974;53.606;9.872;2024-01-15T00:13:11;10.27;;;3.03;;
13805;SDS011;6974;53.606;9.872;2024-01-15T00:15:38;7.57;;;2.40;;
13805;SDS011;6974;53.606;9.872;2024-01-15T00:18:05;9.43;;;2.40;;
13805;SDS011;6974;53.606;9.872;2024-01-15T00:20:34;6.53;;;2.37;;
13805;SDS011;6974;53.606;9.872;2024-01-15T00:23:01;5.33;;;2.03;;
13805;SDS011;6974;53.606;9.872;2024-01-15T00:25:28;7.10;;;2.17;;
13805;SDS011;6974;53.606;9.872;2024-01-15T00:27:55;7.33;;;2.83;;
13805;SDS011;6974;53.606;9.872;2024-01-15T00:30:25;11.17;;;2.47;;
13805;SDS011;6974;53.606;9.872;2024-01-15T00:32:52;10.63;;;3.20;;
13805;SDS011;6974;53.606;9.872;2024-01-15T00:35:19;6.70;;;1.90;;
13805;SDS011;6974;53.606;9.872;2024-01-15T00:37:47;8.70;;;2.33;;
13805;SDS011;6974;53.606;9.872;2024-01-15T00:40:14;7.80;;;2.20;;
13805;SDS011;6974;53.606;9.872;2024-01-15T00:42:41;9.37;;;2.80;;
13805;SDS011;6974;53.606;9.872;2024-01-15T00:45:09;11.07;;;2.93;;
13805;SDS011;6974;53.606;9.872;2024-01-15T00:47:36;11.53;;;2.53;;
13805;SDS011;6974;53.606;9.872;2024-01-15T00:50:03;7.03;;;2.50;;
13805;SDS011;6974;53.606;9.872;2024-01-15T00:52:31;9.33;;;2.50;;
13805;SDS011;6974;53.606;9.872;2024-01-15T00:54:59;10.37;;;2.63;;
13805;SDS011;6974;53.606;9.872;2024-01-15T00:57:26;11.07;;;2.50;;
13805;SDS011;6974;53.606;9.872;2024-01-15T00:59:53;10.27;;;2.50;;
13805;SDS011;6974;53.606;9.872;2024-01-15T01:02:20;11.57;;;3.10;;
13805;SDS011;6974;53.606;9.872;2024-01-15T01:04:47;11.37;;;2.60;;
13805;SDS011;6974;53.606;9.872;2024-01-15T01:07:14;8.90;;;2.50;;
13805;SDS011;6974;53.606;9.872;2024-01-15T01:09:41;9.03;;;2.47;;
13805;SDS011;6974;53.606;9.872;2024-01-15T01:12:10;9.77;;;2.63;;
13805;SDS011;6974;53.606;9.872;2024-01-15T01:14:37;12.27;;;2.47;;
13805;SDS011;6974;53.606;9.872;2024-01-15T01:17:04;6.67;;;3.00;;
13805;SDS011;6974;53.606;9.872;2024-01-15T01:19:31;10.37;;;2.70;;
13805;SDS011;6974;53.606;9.872;2024-01-15T01:21:58;7.70;;;2.37;;
13805;SDS011;6974;53.606;9.872;2024-01-15T01:24:25;11.17;;;2.67;;
13805;SDS011;6974;53.606;9.872;2024-01-15T01:26:52;9.03;;;2.67;;
13805;SDS011;6974;53.606;9.872;2024-01-15T01:29:20;10.13;;;2.57;;
13805;SDS011;6974;53.606;9.872;2024-01-15T01:31:48;13.23;;;2.60;;
13805;SDS011;6974;53.606;9.872;2024-01-15T01:34:15;14.03;;;2.60;;
13805;SDS011;6974;53.606;9.872;2024-01-15T01:36:42;12.30;;;2.90;;
13805;SDS011;6974;53.606;9.872;2024-01-15T01:39:09;11.07;;;2.93;;
13805;SDS011;6974;53.606;9.872;2024-01-15T01:41:37;9.83;;;2.77;;
13805;SDS011;6974;53.606;9.872;2024-01-15T01:44:04;11.50;;;2.70;;
13805;SDS011;6974;53.606;9.872;2024-01-15T01:46:33;13.77;;;3.33;;
13805;SDS011;6974;53.606;9.872;2024-01-15T01:49:04;11.77;;;3.37;;
13805;SDS011;6974;53.606;9.872;2024-01-15T01:51:32;6.33;;;2.47;;
13805;SDS011;6974;53.606;9.872;2024-01-15T01:54:01;11.07;;;2.60;;
13805;SDS011;6974;53.606;9.872;2024-01-15T01:56:28;7.87;;;2.30;;
13805;SDS011;6974;53.606;9.872;2024-01-15T01:58:55;6.70;;;2.60;;
13805;SDS011;6974;53.606;9.872;2024-01-15T02:01:22;8.93;;;2.30;;
13805;SDS011;6974;53.606;9.872;2024-01-15T02:03:51;6.87;;;2.60;;
13805;SDS011;6974;53.606;9.872;2024-01-15T02:06:18;9.27;;;2.50;;
13805;SDS011;6974;53.606;9.872;2024-01-15T02:08:45;8.17;;;2.40;;
13805;SDS011;6974;53.606;9.872;2024-01-15T02:11:12;6.40;;;2.27;;
13805;SDS011;6974;53.606;9.872;2024-01-15T02:13:39;11.37;;;2.40;;
13805;SDS011;6974;53.606;9.872;2024-01-15T02:16:06;10.93;;;2.37;;
13805;SDS011;6974;53.606;9.872;2024-01-15T02:18:39;8.73;;;2.40;;
13805;SDS011;6974;53.606;9.872;2024-01-15T02:21:08;7.23;;;2.97;;
13805;SDS011;6974;53.606;9.872;2024-01-15T02:23:37;9.60;;;2.67;;
13805;SDS011;6974;53.606;9.872;2024-01-15T02:26:04;6.33;;;2.43;;
13805;SDS011;6974;53.606;9.872;2024-01-15T02:28:32;10.40;;;2.77;;
13805;SDS011;6974;53.606;9.872;2024-01-15T02:31:00;6.43;;;2.40;;
13805;SDS011;6974;53.606;9.872;2024-01-15T02:33:27;7.77;;;2.43;;
13805;SDS011;6974;53.606;9.872;2024-01-15T02:35:54;11.37;;;3.17;;
13805;SDS011;6974;53.606;9.872;2024-01-15T02:38:21;7.17;;;2.63;;
13805;SDS011;6974;53.606;9.872;2024-01-15T02:40:49;6.67;;;2.57;;
13805;SDS011;6974;53.606;9.872;2024-01-15T02:43:16;10.73;;;2.73;;
13805;SDS011;6974;53.606;9.872;2024-01-15T02:45:44;4.73;;;2.07;;
13805;SDS011;6974;53.606;9.872;2024-01-15T02:48:11;7.93;;;2.30;;
13805;SDS011;6974;53.606;9.872;2024-01-15T02:50:38;9.60;;;2.80;;
13805;SDS011;6974;53.606;9.872;2024-01-15T02:53:05;7.63;;;2.73;;
13805;SDS011;6974;53.606;9.872;2024-01-15T02:55:32;8.00;;;2.33;;
13805;SDS011;6974;53.606;9.872;2024-01-15T02:58:01;9.23;;;2.50;;
13805;SDS011;6974;53.606;9.872;2024-01-15T03:00:28;8.10;;;2.67;;
13805;SDS011;6974;53.606;9.872;2024-01-15T03:02:55;11.80;;;2.90;;
13805;SDS011;6974;53.606;9.872;2024-01-15T03:05:22;8.67;;;2.53;;
13805;SDS011;6974;53.606;9.872;2024-01-15T03:07:49;9.73;;;2.60;;
13805;SDS011;6974;53.606;9.872;2024-01-15T03:10:16;12.50;;;3.17;;
13805;SDS011;6974;53.606;9.872;2024-01-15T03:12:43;7.77;;;2.47;;
13805;SDS011;6974;53.606;9.872;2024-01-15T03:15:11;10.77;;;2.77;;
13805;SDS011;6974;53.606;9.872;2024-01-15T03:17:38;11.27;;;2.60;;
13805;SDS011;6974;53.606;9.872;2024-01-15T03:20:07;12.87;;;3.80;;
13805;SDS011;6974;53.606;9.872;2024-01-15T03:22:35;11.20;;;3.00;;
13805;SDS011;6974;53.606;9.872;2024-01-15T03:25:02;9.40;;;2.50;;
13805;SDS011;6974;53.606;9.872;2024-01-15T03:27:30;9.10;;;2.70;;
13805;SDS011;6974;53.606;9.872;2024-01-15T03:29:57;12.10;;;2.57;;
13805;SDS011;6974;53.606;9.872;2024-01-15T03:32:25;10.60;;;3.50;;
13805;SDS011;6974;53.606;9.872;2024-01-15T03:34:52;16.67;;;3.53;;
13805;SDS011;6974;53.606;9.872;2024-01-15T03:37:19;8.60;;;2.47;;
13805;SDS011;6974;53.606;9.872;2024-01-15T03:39:46;14.63;;;3.17;;
13805;SDS011;6974;53.606;9.872;2024-01-15T03:42:13;14.27;;;3.03;;
13805;SDS011;6974;53.606;9.872;2024-01-15T03:44:40;12.33;;;3.03;;
13805;SDS011;6974;53.606;9.872;2024-01-15T03:47:07;12.73;;;2.97;;
13805;SDS011;6974;53.606;9.872;2024-01-15T03:49:35;11.30;;;3.10;;
13805;SDS011;6974;53.606;9.872;2024-01-15T03:52:02;10.83;;;2.87;;
13805;SDS011;6974;53.606;9.872;2024-01-15T03:54:29;6.87;;;2.80;;
13805;SDS011;6974;53.606;9.872;2024-01-15T03:56:56;10.37;;;2.83;;
13805;SDS011;6974;53.606;9.872;2024-01-15T03:59:23;9.93;;;2.93;;
13805;SDS011;6974;53.606;9.872;2024-01-15T04:01:50;10.17;;;2.73;;
13805;SDS011;6974;53.606;9.872;2024-01-15T04:04:18;13.10;;;2.93;;
13805;SDS011;6974;53.606;9.872;2024-01-15T04:06:46;8.73;;;3.13;;
13805;SDS011;6974;53.606;9.872;2024-01-15T04:09:13;11.17;;;3.17;;
13805;SDS011;6974;53.606;9.872;2024-01-15T04:11:40;13.57;;;2.90;;
13805;SDS011;6974;53.606;9.872;2024-01-15T04:14:07;13.67;;;3.53;;
13805;SDS011;6974;53.606;9.872;2024-01-15T04:16:34;10.33;;;2.70;;
13805;SDS011;6974;53.606;9.872;2024-01-15T04:19:00;10.40;;;3.00;;
13805;SDS011;6974;53.606;9.872;2024-01-15T04:21:27;9.73;;;3.03;;
13805;SDS011;6974;53.606;9.872;2024-01-15T04:23:56;12.60;;;2.93;;
13805;SDS011;6974;53.606;9.872;2024-01-15T04:26:22;16.70;;;3.50;;
13805;SDS011;6974;53.606;9.872;2024-01-15T04:28:49;11.47;;;3.00;;
13805;SDS011;6974;53.606;9.872;2024-01-15T04:31:23;16.70;;;3.60;;
13805;SDS011;6974;53.606;9.872;2024-01-15T04:33:50;17.33;;;3.33;;
13805;SDS011;6974;53.606;9.872;2024-01-15T04:36:17;12.70;;;3.90;;
13805;SDS011;6974;53.606;9.872;2024-01-15T04:38:44;13.13;;;4.57;;
13805;SDS011;6974;53.606;9.872;2024-01-15T04:41:13;13.40;;;3.50;;
13805;SDS011;6974;53.606;9.872;2024-01-15T04:43:40;15.07;;;3.33;;
13805;SDS011;6974;53.606;9.872;2024-01-15T04:46:07;14.20;;;3.90;;
13805;SDS011;6974;53.606;9.872;2024-01-15T04:48:34;15.20;;;4.27;;
13805;SDS011;6974;53.606;9.872;2024-01-15T04:51:03;17.83;;;4.17;;
13805;SDS011;6974;53.606;9.872;2024-01-15T04:53:31;18.80;;;4.10;;
13805;SDS011;6974;53.606;9.872;2024-01-15T04:55:58;15.60;;;3.70;;
13805;SDS011;6974;53.606;9.872;2024-01-15T04:58:26;14.67;;;4.27;;
13805;SDS011;6974;53.606;9.872;2024-01-15T05:00:53;21.30;;;4.07;;
13805;SDS011;6974;53.606;9.872;2024-01-15T05:03:20;16.70;;;3.60;;
13805;SDS011;6974;53.606;9.872;2024-01-15T05:05:47;20.07;;;3.90;;
13805;SDS011;6974;53.606;9.872;2024-01-15T05:08:14;15.47;;;3.77;;
13805;SDS011;6974;53.606;9.872;2024-01-15T05:10:40;15.30;;;3.67;;
13805;SDS011;6974;53.606;9.872;2024-01-15T05:13:07;13.53;;;3.80;;
13805;SDS011;6974;53.606;9.872;2024-01-15T05:15:35;14.60;;;3.60;;
13805;SDS011;6974;53.606;9.872;2024-01-15T05:18:02;17.00;;;3.87;;
13805;SDS011;6974;53.606;9.872;2024-01-15T05:20:29;16.10;;;4.20;;
13805;SDS011;6974;53.606;9.872;2024-01-15T05:22:56;16.03;;;3.83;;
13805;SDS011;6974;53.606;9.872;2024-01-15T05:25:23;18.50;;;4.10;;
13805;SDS011;6974;53.606;9.872;2024-01-15T05:27:50;23.07;;;4.10;;
13805;SDS011;6974;53.606;9.872;2024-01-15T05:30:17;13.63;;;3.93;;
13805;SDS011;6974;53.606;9.872;2024-01-15T05:32:45;15.83;;;3.37;;
13805;SDS011;6974;53.606;9.872;2024-01-15T05:35:12;15.43;;;4.20;;
13805;SDS011;6974;53.606;9.872;2024-01-15T05:37:41;15.33;;;3.63;;
13805;SDS011;6974;53.606;9.872;2024-01-15T05:40:10;14.73;;;3.70;;
13805;SDS011;6974;53.606;9.872;2024-01-15T05:42:37;12.63;;;3.63;;
13805;SDS011;6974;53.606;9.872;2024-01-15T05:45:05;19.07;;;3.67;;
13805;SDS011;6974;53.606;9.872;2024-01-15T05:47:32;16.20;;;4.07;;
13805;SDS011;6974;53.606;9.872;2024-01-15T05:50:00;14.20;;;3.60;;
13805;SDS011;6974;53.606;9.872;2024-01-15T05:52:27;15.00;;;4.70;;
13805;SDS011;6974;53.606;9.872;2024-01-15T05:54:54;20.10;;;4.10;;
13805;SDS011;6974;53.606;9.872;2024-01-15T05:57:21;19.97;;;4.23;;
13805;SDS011;6974;53.606;9.872;2024-01-15T05:59:48;18.13;;;4.17;;
13805;SDS011;6974;53.606;9.872;2024-01-15T06:02:15;20.40;;;4.20;;
13805;SDS011;6974;53.606;9.872;2024-01-15T06:04:42;12.47;;;4.13;;
13805;SDS011;6974;53.606;9.872;2024-01-15T06:07:10;12.17;;;3.90;;
13805;SDS011;6974;53.606;9.872;2024-01-15T06:09:37;13.33;;;3.33;;
13805;SDS011;6974;53.606;9.872;2024-01-15T06:12:04;15.03;;;4.20;;
13805;SDS011;6974;53.606;9.872;2024-01-15T06:14:33;16.50;;;4.17;;
13805;SDS011;6974;53.606;9.872;2024-01-15T06:17:00;13.33;;;3.60;;
13805;SDS011;6974;53.606;9.872;2024-01-15T06:19:26;16.87;;;4.33;;
13805;SDS011;6974;53.606;9.872;2024-01-15T06:21:53;13.43;;;3.77;;
13805;SDS011;6974;53.606;9.872;2024-01-15T06:24:21;17.17;;;4.10;;
13805;SDS011;6974;53.606;9.872;2024-01-15T06:26:48;18.37;;;4.43;;
13805;SDS011;6974;53.606;9.872;2024-01-15T06:29:15;14.50;;;3.70;;
13805;SDS011;6974;53.606;9.872;2024-01-15T06:31:42;18.30;;;4.17;;
13805;SDS011;6974;53.606;9.872;2024-01-15T06:34:09;15.67;;;3.73;;
13805;SDS011;6974;53.606;9.872;2024-01-15T06:36:36;12.70;;;3.50;;
13805;SDS011;6974;53.606;9.872;2024-01-15T06:39:03;15.43;;;3.50;;
13805;SDS011;6974;53.606;9.872;2024-01-15T06:41:31;13.93;;;3.63;;
13805;SDS011;6974;53.606;9.872;2024-01-15T06:43:58;18.47;;;4.07;;
13805;SDS011;6974;53.606;9.872;2024-01-15T06:46:25;17.67;;;3.77;;
13805;SDS011;6974;53.606;9.872;2024-01-15T06:48:52;10.10;;;3.10;;
13805;SDS011;6974;53.606;9.872;2024-01-15T06:51:18;16.53;;;3.70;;
13805;SDS011;6974;53.606;9.872;2024-01-15T06:53:45;9.33;;;2.67;;
13805;SDS011;6974;53.606;9.872;2024-01-15T06:56:12;12.57;;;3.30;;
13805;SDS011;6974;53.606;9.872;2024-01-15T06:58:40;8.80;;;3.20;;
13805;SDS011;6974;53.606;9.872;2024-01-15T07:01:07;10.50;;;2.97;;
13805;SDS011;6974;53.606;9.872;2024-01-15T07:03:34;10.43;;;3.47;;
13805;SDS011;6974;53.606;9.872;2024-01-15T07:06:06;11.40;;;3.33;;
13805;SDS011;6974;53.606;9.872;2024-01-15T07:08:33;8.77;;;2.60;;
13805;SDS011;6974;53.606;9.872;2024-01-15T07:11:02;13.07;;;3.27;;
13805;SDS011;6974;53.606;9.872;2024-01-15T07:13:30;11.07;;;2.80;;
13805;SDS011;6974;53.606;9.872;2024-01-15T07:15:58;18.63;;;3.17;;
13805;SDS011;6974;53.606;9.872;2024-01-15T07:18:25;10.43;;;2.97;;
13805;SDS011;6974;53.606;9.872;2024-01-15T07:20:52;14.30;;;3.33;;
13805;SDS011;6974;53.606;9.872;2024-01-15T07:23:18;9.93;;;2.60;;
13805;SDS011;6974;53.606;9.872;2024-01-15T07:25:45;11.40;;;2.47;;
13805;SDS011;6974;53.606;9.872;2024-01-15T07:28:16;10.40;;;2.90;;
13805;SDS011;6974;53.606;9.872;2024-01-15T07:30:57;8.97;;;2.10;;
13805;SDS011;6974;53.606;9.872;2024-01-15T07:33:24;12.63;;;2.50;;
13805;SDS011;6974;53.606;9.872;2024-01-15T07:35:51;11.47;;;2.43;;
13805;SDS011;6974;53.606;9.872;2024-01-15T07:38:18;7.13;;;2.87;;
13805;SDS011;6974;53.606;9.872;2024-01-15T07:40:44;7.23;;;2.33;;
13805;SDS011;6974;53.606;9.872;2024-01-15T07:43:14;10.23;;;2.73;;
13805;SDS011;6974;53.606;9.872;2024-01-15T07:45:41;8.87;;;2.47;;
13805;SDS011;6974;53.606;9.872;2024-01-15T07:48:09;8.40;;;2.50;;
13805;SDS011;6974;53.606;9.872;2024-01-15T07:50:36;9.57;;;2.50;;
13805;SDS011;6974;53.606;9.872;2024-01-15T07:53:03;5.23;;;2.07;;
13805;SDS011;6974;53.606;9.872;2024-01-15T07:55:30;8.87;;;2.27;;
13805;SDS011;6974;53.606;9.872;2024-01-15T07:57:57;7.47;;;2.10;;
13805;SDS011;6974;53.606;9.872;2024-01-15T08:00:24;8.07;;;2.67;;
13805;SDS011;6974;53.606;9.872;2024-01-15T08:02:51;8.53;;;2.27;;
13805;SDS011;6974;53.606;9.872;2024-01-15T08:05:20;8.93;;;2.10;;
13805;SDS011;6974;53.606;9.872;2024-01-15T08:07:53;9.03;;;2.17;;
13805;SDS011;6974;53.606;9.872;2024-01-15T08:10:35;9.33;;;2.10;;
13805;SDS011;6974;53.606;9.872;2024-01-15T08:13:01;11.10;;;2.70;;
13805;SDS011;6974;53.606;9.872;2024-01-15T08:15:28;8.70;;;2.70;;
13805;SDS011;6974;53.606;9.872;2024-01-15T08:17:55;10.57;;;2.60;;
13805;SDS011;6974;53.606;9.872;2024-01-15T08:20:23;15.20;;;3.07;;
13805;SDS011;6974;53.606;9.872;2024-01-15T08:22:50;7.50;;;2.03;;
13805;SDS011;6974;53.606;9.872;2024-01-15T08:25:17;8.33;;;2.57;;
13805;SDS011;6974;53.606;9.872;2024-01-15T08:27:44;11.57;;;2.57;;
13805;SDS011;6974;53.606;9.872;2024-01-15T08:30:11;6.63;;;2.17;;
13805;SDS011;6974;53.606;9.872;2024-01-15T08:32:39;8.23;;;2.57;;
13805;SDS011;6974;53.606;9.872;2024-01-15T08:35:07;7.17;;;1.93;;
13805;SDS011;6974;53.606;9.872;2024-01-15T08:37:36;8.47;;;2.60;;
13805;SDS011;6974;53.606;9.872;2024-01-15T08:40:04;7.90;;;2.60;;
13805;SDS011;6974;53.606;9.872;2024-01-15T08:42:31;7.80;;;2.27;;
13805;SDS011;6974;53.606;9.872;2024-01-15T08:44:58;7.33;;;2.80;;
13805;SDS011;6974;53.606;9.872;2024-01-15T08:47:24;7.57;;;2.40;;
13805;SDS011;6974;53.606;9.872;2024-01-15T08:49:53;10.63;;;2.37;;
13805;SDS011;6974;53.606;9.872;2024-01-15T08:52:19;7.10;;;1.93;;
13805;SDS011;6974;53.606;9.872;2024-01-15T08:54:48;6.50;;;2.00;;
13805;SDS011;6974;53.606;9.872;2024-01-15T08:57:14;5.50;;;2.10;;
13805;SDS011;6974;53.606;9.872;2024-01-15T08:59:41;6.90;;;1.97;;
13805;SDS011;6974;53.606;9.872;2024-01-15T09:02:08;7.07;;;1.80;;
13805;SDS011;6974;53.606;9.872;2024-01-15T09:04:35;6.10;;;2.20;;
13805;SDS011;6974;53.606;9.872;2024-01-15T09:07:02;7.30;;;2.00;;
13805;SDS011;6974;53.606;9.872;2024-01-15T09:09:29;10.67;;;3.07;;
13805;SDS011;6974;53.606;9.872;2024-01-15T09:11:57;6.60;;;2.70;;
13805;SDS011;6974;53.606;9.872;2024-01-15T09:14:24;10.43;;;2.23;;
13805;SDS011;6974;53.606;9.872;2024-01-15T09:16:52;8.00;;;2.37;;
13805;SDS011;6974;53.606;9.872;2024-01-15T09:19:19;8.17;;;2.60;;
13805;SDS011;6974;53.606;9.872;2024-01-15T09:21:46;7.33;;;2.23;;
13805;SDS011;6974;53.606;9.872;2024-01-15T09:24:13;8.97;;;2.53;;
13805;SDS011;6974;53.606;9.872;2024-01-15T09:26:39;6.87;;;2.73;;
13805;SDS011;6974;53.606;9.872;2024-01-15T09:29:08;5.47;;;2.67;;
13805;SDS011;6974;53.606;9.872;2024-01-15T09:31:35;7.70;;;2.97;;
13805;SDS011;6974;53.606;9.872;2024-01-15T09:34:02;11.43;;;3.20;;
13805;SDS011;6974;53.606;9.872;2024-01-15T09:36:28;12.00;;;2.27;;
13805;SDS011;6974;53.606;9.872;2024-01-15T09:38:56;9.87;;;3.07;;
13805;SDS011;6974;53.606;9.872;2024-01-15T09:41:23;6.13;;;2.30;;
13805;SDS011;6974;53.606;9.872;2024-01-15T09:43:50;6.03;;;2.33;;
13805;SDS011;6974;53.606;9.872;2024-01-15T09:46:19;7.20;;;2.20;;
13805;SDS011;6974;53.606;9.872;2024-01-15T09:48:46;6.93;;;2.17;;
13805;SDS011;6974;53.606;9.872;2024-01-15T09:51:14;6.97;;;2.03;;
13805;SDS011;6974;53.606;9.872;2024-01-15T09:53:42;12.73;;;2.10;;
13805;SDS011;6974;53.606;9.872;2024-01-15T09:56:10;9.60;;;2.30;;
13805;SDS011;6974;53.606;9.872;2024-01-15T09:58:37;8.77;;;2.23;;
13805;SDS011;6974;53.606;9.872;2024-01-15T10:03:52;6.80;;;2.40;;
13805;SDS011;6974;53.606;9.872;2024-01-15T10:06:21;7.13;;;2.00;;
13805;SDS011;6974;53.606;9.872;2024-01-15T10:08:49;5.97;;;1.70;;
13805;SDS011;6974;53.606;9.872;2024-01-15T10:11:16;6.63;;;1.60;;
13805;SDS011;6974;53.606;9.872;2024-01-15T10:13:43;6.53;;;2.10;;
13805;SDS011;6974;53.606;9.872;2024-01-15T10:16:10;4.13;;;1.50;;
13805;SDS011;6974;53.606;9.872;2024-01-15T10:18:39;3.70;;;1.30;;
13805;SDS011;6974;53.606;9.872;2024-01-15T10:21:05;5.37;;;1.80;;
13805;SDS011;6974;53.606;9.872;2024-01-15T10:23:33;2.33;;;1.53;;
13805;SDS011;6974;53.606;9.872;2024-01-15T10:26:01;8.47;;;1.90;;
13805;SDS011;6974;53.606;9.872;2024-01-15T10:28:28;4.60;;;2.17;;
13805;SDS011;6974;53.606;9.872;2024-01-15T10:30:57;5.23;;;1.93;;
13805;SDS011;6974;53.606;9.872;2024-01-15T10:33:25;4.27;;;1.70;;
13805;SDS011;6974;53.606;9.872;2024-01-15T10:35:54;7.50;;;1.90;;
13805;SDS011;6974;53.606;9.872;2024-01-15T10:38:21;5.57;;;2.17;;
13805;SDS011;6974;53.606;9.872;2024-01-15T10:40:50;6.77;;;1.90;;
13805;SDS011;6974;53.606;9.872;2024-01-15T10:43:18;2.93;;;1.60;;
13805;SDS011;6974;53.606;9.872;2024-01-15T10:45:45;4.00;;;1.93;;
13805;SDS011;6974;53.606;9.872;2024-01-15T10:48:12;4.87;;;1.67;;
13805;SDS011;6974;53.606;9.872;2024-01-15T10:50:39;4.10;;;1.63;;
13805;SDS011;6974;53.606;9.872;2024-01-15T10:53:07;2.97;;;1.30;;
13805;SDS011;6974;53.606;9.872;2024-01-15T10:55:35;2.50;;;1.60;;
13805;SDS011;6974;53.606;9.872;2024-01-15T10:58:04;3.23;;;1.73;;
13805;SDS011;6974;53.606;9.872;2024-01-15T11:00:33;3.10;;;1.57;;
13805;SDS011;6974;53.606;9.872;2024-01-15T11:03:02;5.47;;;1.40;;
13805;SDS011;6974;53.606;9.872;2024-01-15T11:05:36;3.33;;;1.50;;
13805;SDS011;6974;53.606;9.872;2024-01-15T11:08:05;3.90;;;1.60;;
13805;SDS011;6974;53.606;9.872;2024-01-15T11:10:37;1.93;;;1.50;;
13805;SDS011;6974;53.606;9.872;2024-01-15T11:13:05;5.17;;;1.90;;
13805;SDS011;6974;53.606;9.872;2024-01-15T11:18:26;5.33;;;1.70;;
13805;SDS011;6974;53.606;9.872;2024-01-15T11:23:52;3.43;;;1.23;;
13805;SDS011;6974;53.606;9.872;2024-01-15T11:26:31;4.67;;;1.53;;
13805;SDS011;6974;53.606;9.872;2024-01-15T11:29:02;4.57;;;1.60;;
13805;SDS011;6974;53.606;9.872;2024-01-15T11:37:23;3.10;;;1.80;;
13805;SDS011;6974;53.606;9.872;2024-01-15T11:39:54;3.27;;;1.50;;
13805;SDS011;6974;53.606;9.872;2024-01-15T11:42:21;3.90;;;1.90;;
13805;SDS011;6974;53.606;9.872;2024-01-15T11:44:49;3.87;;;1.90;;
13805;SDS011;6974;53.606;9.872;2024-01-15T11:47:16;3.80;;;1.47;;
13805;SDS011;6974;53.606;9.872;2024-01-15T11:50:17;3.33;;;1.87;;
13805;SDS011;6974;53.606;9.872;2024-01-15T11:52:47;6.40;;;1.97;;
13805;SDS011;6974;53.606;9.872;2024-01-15T11:55:25;2.43;;;1.67;;
13805;SDS011;6974;53.606;9.872;2024-01-15T11:57:54;5.50;;;1.83;;
13805;SDS011;6974;53.606;9.872;2024-01-15T12:00:23;3.70;;;1.47;;
13805;SDS011;6974;53.606;9.872;2024-01-15T12:02:50;2.87;;;1.63;;
13805;SDS011;6974;53.606;9.872;2024-01-15T12:05:18;2.40;;;1.50;;
13805;SDS011;6974;53.606;9.872;2024-01-15T12:07:46;3.27;;;2.00;;
13805;SDS011;6974;53.606;9.872;2024-01-15T12:10:14;5.30;;;1.80;;
13805;SDS011;6974;53.606;9.872;2024-01-15T12:12:50;1.63;;;1.37;;
13805;SDS011;6974;53.606;9.872;2024-01-15T12:15:23;3.43;;;1.90;;
13805;SDS011;6974;53.606;9.872;2024-01-15T12:17:51;2.33;;;1.90;;
13805;SDS011;6974;53.606;9.872;2024-01-15T12:20:18;1.63;;;1.50;;
13805;SDS011;6974;53.606;9.872;2024-01-15T12:22:45;1.60;;;1.50;;
13805;SDS011;6974;53.606;9.872;2024-01-15T12:25:13;2.13;;;1.63;;
13805;SDS011;6974;53.606;9.872;2024-01-15T12:27:40;4.00;;;2.37;;
13805;SDS011;6974;53.606;9.872;2024-01-15T12:30:11;1.93;;;1.77;;
13805;SDS011;6974;53.606;9.872;2024-01-15T12:32:40;4.50;;;3.77;;
13805;SDS011;6974;53.606;9.872;2024-01-15T12:35:07;2.43;;;1.90;;
13805;SDS011;6974;53.606;9.872;2024-01-15T12:37:35;4.73;;;2.07;;
13805;SDS011;6974;53.606;9.872;2024-01-15T12:40:02;6.43;;;3.93;;
13805;SDS011;6974;53.606;9.872;2024-01-15T12:42:31;5.43;;;4.10;;
13805;SDS011;6974;53.606;9.872;2024-01-15T12:45:00;2.63;;;2.40;;
13805;SDS011;6974;53.606;9.872;2024-01-15T12:47:28;11.20;;;6.97;;
13805;SDS011;6974;53.606;9.872;2024-01-15T12:49:55;7.50;;;4.77;;
13805;SDS011;6974;53.606;9.872;2024-01-15T12:52:26;3.87;;;1.97;;
13805;SDS011;6974;53.606;9.872;2024-01-15T12:54:53;7.23;;;1.70;;
13805;SDS011;6974;53.606;9.872;2024-01-15T12:57:20;2.30;;;1.63;;
13805;SDS011;6974;53.606;9.872;2024-01-15T12:59:47;1.70;;;1.60;;
13805;SDS011;6974;53.606;9.872;2024-01-15T13:02:15;2.13;;;1.50;;
13805;SDS011;6974;53.606;9.872;2024-01-15T13:04:44;1.77;;;1.60;;
13805;SDS011;6974;53.606;9.872;2024-01-15T13:07:11;1.80;;;1.20;;
13805;SDS011;6974;53.606;9.872;2024-01-15T13:09:38;20.83;;;9.87;;
13805;SDS011;6974;53.606;9.872;2024-01-15T13:12:05;29.23;;;15.30;;
13805;SDS011;6974;53.606;9.872;2024-01-15T13:14:32;3.77;;;1.70;;
13805;SDS011;6974;53.606;9.872;2024-01-15T13:16:59;14.57;;;9.27;;
13805;SDS011;6974;53.606;9.872;2024-01-15T13:19:26;10.27;;;7.53;;
13805;SDS011;6974;53.606;9.872;2024-01-15T13:21:54;3.47;;;3.00;;
13805;SDS011;6974;53.606;9.872;2024-01-15T13:24:23;6.13;;;4.27;;
13805;SDS011;6974;53.606;9.872;2024-01-15T13:26:50;4.83;;;1.90;;
13805;SDS011;6974;53.606;9.872;2024-01-15T13:29:17;2.47;;;1.57;;
13805;SDS011;6974;53.606;9.872;2024-01-15T13:31:44;4.00;;;1.63;;
13805;SDS011;6974;53.606;9.872;2024-01-15T13:34:12;3.53;;;1.87;;
13805;SDS011;6974;53.606;9.872;2024-01-15T13:36:39;3.00;;;1.80;;
13805;SDS011;6974;53.606;9.872;2024-01-15T13:39:07;2.90;;;1.80;;
13805;SDS011;6974;53.606;9.872;2024-01-15T13:41:35;1.90;;;1.67;;
13805;SDS011;6974;53.606;9.872;2024-01-15T13:44:02;3.63;;;2.77;;
13805;SDS011;6974;53.606;9.872;2024-01-15T13:46:29;4.67;;;2.07;;
13805;SDS011;6974;53.606;9.872;2024-01-15T13:48:56;3.37;;;1.70;;
13805;SDS011;6974;53.606;9.872;2024-01-15T13:51:23;2.43;;;1.63;;
13805;SDS011;6974;53.606;9.872;2024-01-15T13:53:50;3.10;;;1.83;;
13805;SDS011;6974;53.606;9.872;2024-01-15T13:56:19;3.80;;;1.90;;
13805;SDS011;6974;53.606;9.872;2024-01-15T13:58:46;1.87;;;1.43;;
13805;SDS011;6974;53.606;9.872;2024-01-15T14:01:14;2.37;;;1.80;;
13805;SDS011;6974;53.606;9.872;2024-01-15T14:03:42;3.33;;;2.10;;
13805;SDS011;6974;53.606;9.872;2024-01-15T14:06:09;2.97;;;2.10;;
13805;SDS011;6974;53.606;9.872;2024-01-15T14:08:36;2.63;;;2.23;;
13805;SDS011;6974;53.606;9.872;2024-01-15T14:11:03;3.77;;;2.33;;
13805;SDS011;6974;53.606;9.872;2024-01-15T14:13:33;3.70;;;1.97;;
13805;SDS011;6974;53.606;9.872;2024-01-15T14:16:00;3.23;;;2.23;;
13805;SDS011;6974;53.606;9.872;2024-01-15T14:18:27;5.60;;;2.70;;
13805;SDS011;6974;53.606;9.872;2024-01-15T14:20:54;3.30;;;2.20;;
13805;SDS011;6974;53.606;9.872;2024-01-15T14:23:21;5.00;;;2.27;;
13805;SDS011;6974;53.606;9.872;2024-01-15T14:25:48;2.57;;;2.00;;
13805;SDS011;6974;53.606;9.872;2024-01-15T14:28:15;2.70;;;2.10;;
13805;SDS011;6974;53.606;9.872;2024-01-15T14:30:43;3.13;;;2.20;;
13805;SDS011;6974;53.606;9.872;2024-01-15T14:33:10;4.27;;;2.10;;
13805;SDS011;6974;53.606;9.872;2024-01-15T14:35:37;2.53;;;2.00;;
13805;SDS011;6974;53.606;9.872;2024-01-15T14:38:04;3.77;;;2.07;;
13805;SDS011;6974;53.606;9.872;2024-01-15T14:40:32;3.23;;;2.17;;
13805;SDS011;6974;53.606;9.872;2024-01-15T14:43:01;3.37;;;2.20;;
13805;SDS011;6974;53.606;9.872;2024-01-15T14:45:29;3.10;;;2.40;;
13805;SDS011;6974;53.606;9.872;2024-01-15T14:47:57;6.10;;;2.50;;
13805;SDS011;6974;53.606;9.872;2024-01-15T14:50:24;3.77;;;2.90;;
13805;SDS011;6974;53.606;9.872;2024-01-15T14:52:51;4.97;;;3.17;;
13805;SDS011;6974;53.606;9.872;2024-01-15T14:55:18;5.00;;;3.63;;
13805;SDS011;6974;53.606;9.872;2024-01-15T14:57:48;5.13;;;2.77;;
13805;SDS011;6974;53.606;9.872;2024-01-15T15:00:15;3.37;;;3.07;;
13805;SDS011;6974;53.606;9.872;2024-01-15T15:02:42;5.77;;;3.53;;
13805;SDS011;6974;53.606;9.872;2024-01-15T15:05:11;4.23;;;3.37;;
13805;SDS011;6974;53.606;9.872;2024-01-15T15:07:38;3.83;;;3.47;;
13805;SDS011;6974;53.606;9.872;2024-01-15T15:10:06;4.07;;;2.93;;
13805;SDS011;6974;53.606;9.872;2024-01-15T15:12:34;5.63;;;2.80;;